< Cyclone 198908 1989 Season Cyclone 198910 >
Cyclone 198909 (AIVU)
General InformationTrack Information on Google MapsDetailed Wind InformationList of All Images || ResourceGoogle EarthGE AnimationAtom FeedGeoJSON
Detalied Best Track (Time Zone = UTC)
Year Month Day Hour Lat. Long. Pressure (hPa) Wind (kt) Class Image Chart
1989 3 31 12 -9.7 153.5 1000 25 2 Image --
1989 3 31 18 -9.7 153.0 998 30 2 Image --
1989 4 1 00 -10.1 152.7 995 35 3 Image --
1989 4 1 06 -11.0 152.4 990 45 3 Image --
1989 4 1 12 -12.0 152.0 989 45 3 Image --
1989 4 1 18 -13.2 151.5 986 50 4 Image --
1989 4 2 00 -14.2 150.8 984 55 4 Image --
1989 4 2 06 -15.4 149.9 980 60 4 Image --
1989 4 2 12 -15.5 149.5 975 70 5 Image --
1989 4 2 18 -15.8 149.3 962 90 5 Image --
1989 4 3 00 -16.5 149.2 950 110 5 Image --
1989 4 3 06 -16.9 149.2 935 110 5 Image --
1989 4 3 12 -17.8 149.0 942 105 5 Image --
1989 4 3 18 -18.4 148.4 948 95 5 Image --
1989 4 4 00 -19.5 147.6 955 85 5 Image --
1989 4 4 06 -19.9 146.3 987 50 4 Image --
1989 4 4 12 -20.3 145.1 993 35 3 Image --
1989 4 4 18 -20.8 144.1 997 30 2 Image --
1989 4 5 00 -21.5 143.0 1000 25 2 Image --
1989 4 5 06 -21.9 142.6 1001 20 2 Image --
1989 4 5 12 -21.9 142.2 1003 15 2 Image --
< Cyclone 198908 1989 Season Cyclone 198910 >

Help